Key Lake Airport
CYKJ : now visible

Airfield :











YOU CAN JOIN US ON...

 
LOGIN :

Register | Disclaimer

   EN    FR    IT 

 









Legend :    VFR   Marginal VFR   IFR   Intensive IFR   Very Intensive IFR
Visi :
Ceiling :
>= 8 km
>= 3000ft
5 to 8 km
1000 to 3000 ft
1500m to 5 km
500 to 1000 ft
800 to 1500m
200 to 500 ft
< 800m
< 200 ft
Symbols :   Thunderstorms  Fog  Heavy snow  Heavy precipitations  Wind > 20 kt






- Airport Elevation : 1679 ft
- IATA code : YKJ


CYKJ - Key Lake

CURRENT METAR :
  • 081500Z AUTO 30011G18KT 9SM OVC010 M14/M17 A3000 RMK SLP198

EXPIRED METARs :
  • 081403Z AUTO 32011G16KT 9SM -SN OVC010 M14/M16 A2996 RMK SLP200
  • 081350Z AUTO 32010G15KT 9SM -SN OVC010 M14/M16 A2996 RMK SLP198
  • 081329Z AUTO 33010G18KT 9SM OVC010 M14/M16 A2995 RMK SLP196
  • 081300Z AUTO 30009KT 9SM -SN OVC010 M13/M15 A2994 RMK SLP180
  • 081246Z AUTO 33009G16KT 9SM -SN OVC012 M12/M14 A2993 RMK SLP187
  • 081244Z AUTO 33009G16KT 9SM OVC012 M12/M14 A2993 RMK SLP187

TAF AMD TAF CYKJ
Valid from the 08 at 13:00 until the 09 at 00:00 UTC


081308Z 0813/0824 31010G20KT P6SM OVC010
TEMPO 0813/0816 3SM -SN BKN008 OVC010
FM081600 31012G22KT P6SM FEW012 SCT080 RMK FCST BASED ON AUTO OBS. NXT FCST BY 081900Z
CZEG FIR / North America



MET'MAP, your aeronautical weather chart ! - Copyright ORBIFLY December 2007 - Disclaimer

ORBIFLY MET'MAP TEAM :

Programming & Development : Alexandra Zaïnal
Concept & original design : Baudouin d'Aumeries
Assistance for programming : Marc-Olivier Méhu
Technical & hardware support : Manuel Goepfert

Contact : metmap@orbifly.com




SOURCES & CREDITS :

   NOAA       Earth
Advisory